sensor_id;sensor_type;location;lat;lon;timestamp;temperature;humidity
79065;DHT22;68469;51.502;7.462;2023-07-29T00:01:11;18.70;99.90
79065;DHT22;68469;51.502;7.462;2023-07-29T00:03:37;18.70;99.90
79065;DHT22;68469;51.502;7.462;2023-07-29T00:08:31;18.70;99.90
79065;DHT22;68469;51.502;7.462;2023-07-29T00:10:57;18.60;99.90
79065;DHT22;68469;51.502;7.462;2023-07-29T00:13:22;18.60;99.90
79065;DHT22;68469;51.502;7.462;2023-07-29T00:15:48;18.60;99.90
79065;DHT22;68469;51.502;7.462;2023-07-29T00:18:13;18.60;99.90
79065;DHT22;68469;51.502;7.462;2023-07-29T00:20:39;18.70;99.90
79065;DHT22;68469;51.502;7.462;2023-07-29T00:23:05;18.60;99.90
79065;DHT22;68469;51.502;7.462;2023-07-29T00:25:30;18.70;99.90
79065;DHT22;68469;51.502;7.462;2023-07-29T00:27:56;18.60;99.90
79065;DHT22;68469;51.502;7.462;2023-07-29T00:30:22;18.70;99.90
79065;DHT22;68469;51.502;7.462;2023-07-29T00:32:47;18.60;99.90
79065;DHT22;68469;51.502;7.462;2023-07-29T00:35:13;18.70;99.90
79065;DHT22;68469;51.502;7.462;2023-07-29T00:37:38;18.70;99.90
79065;DHT22;68469;51.502;7.462;2023-07-29T00:40:15;18.60;99.90
79065;DHT22;68469;51.502;7.462;2023-07-29T00:42:42;18.60;99.90
79065;DHT22;68469;51.502;7.462;2023-07-29T00:45:09;18.60;99.90
79065;DHT22;68469;51.502;7.462;2023-07-29T00:47:34;18.60;99.90
79065;DHT22;68469;51.502;7.462;2023-07-29T00:50:03;18.50;99.90
79065;DHT22;68469;51.502;7.462;2023-07-29T00:52:29;18.50;99.90
79065;DHT22;68469;51.502;7.462;2023-07-29T00:54:54;18.50;99.90
79065;DHT22;68469;51.502;7.462;2023-07-29T00:57:20;18.50;99.90
79065;DHT22;68469;51.502;7.462;2023-07-29T00:59:46;18.40;99.90
79065;DHT22;68469;51.502;7.462;2023-07-29T01:02:12;18.40;99.90
79065;DHT22;68469;51.502;7.462;2023-07-29T01:04:38;18.40;99.90
79065;DHT22;68469;51.502;7.462;2023-07-29T01:10:01;18.40;99.90
79065;DHT22;68469;51.502;7.462;2023-07-29T01:15:19;18.40;99.90
79065;DHT22;68469;51.502;7.462;2023-07-29T01:18:05;18.40;99.90
79065;DHT22;68469;51.502;7.462;2023-07-29T01:20:33;18.40;99.90
79065;DHT22;68469;51.502;7.462;2023-07-29T01:22:59;18.40;99.90
79065;DHT22;68469;51.502;7.462;2023-07-29T01:25:24;18.40;99.90
79065;DHT22;68469;51.502;7.462;2023-07-29T01:27:51;18.40;99.90
79065;DHT22;68469;51.502;7.462;2023-07-29T01:30:23;18.40;99.90
79065;DHT22;68469;51.502;7.462;2023-07-29T01:35:35;18.40;99.90
79065;DHT22;68469;51.502;7.462;2023-07-29T01:38:18;18.40;99.90
79065;DHT22;68469;51.502;7.462;2023-07-29T01:40:45;18.40;99.90
79065;DHT22;68469;51.502;7.462;2023-07-29T01:43:11;18.30;99.90
79065;DHT22;68469;51.502;7.462;2023-07-29T01:45:37;18.30;99.90
79065;DHT22;68469;51.502;7.462;2023-07-29T01:48:05;18.30;99.90
79065;DHT22;68469;51.502;7.462;2023-07-29T01:50:30;18.20;99.90
79065;DHT22;68469;51.502;7.462;2023-07-29T01:52:57;18.20;99.90
79065;DHT22;68469;51.502;7.462;2023-07-29T01:55:23;18.30;99.90
79065;DHT22;68469;51.502;7.462;2023-07-29T01:57:49;18.20;99.90
79065;DHT22;68469;51.502;7.462;2023-07-29T02:00:15;18.20;99.90
79065;DHT22;68469;51.502;7.462;2023-07-29T02:02:41;18.20;99.90
79065;DHT22;68469;51.502;7.462;2023-07-29T02:05:06;18.20;99.90
79065;DHT22;68469;51.502;7.462;2023-07-29T02:07:32;18.10;99.90
79065;DHT22;68469;51.502;7.462;2023-07-29T02:09:58;18.10;99.90
79065;DHT22;68469;51.502;7.462;2023-07-29T02:12:24;18.10;99.90
79065;DHT22;68469;51.502;7.462;2023-07-29T02:14:49;18.10;99.90
79065;DHT22;68469;51.502;7.462;2023-07-29T02:17:15;18.10;99.90
79065;DHT22;68469;51.502;7.462;2023-07-29T02:19:41;18.10;99.90
79065;DHT22;68469;51.502;7.462;2023-07-29T02:22:06;18.10;99.90
79065;DHT22;68469;51.502;7.462;2023-07-29T02:24:32;18.10;99.90
79065;DHT22;68469;51.502;7.462;2023-07-29T02:26:58;18.10;99.90
79065;DHT22;68469;51.502;7.462;2023-07-29T02:29:23;18.10;99.90
79065;DHT22;68469;51.502;7.462;2023-07-29T02:31:50;18.10;99.90
79065;DHT22;68469;51.502;7.462;2023-07-29T02:34:16;18.10;99.90
79065;DHT22;68469;51.502;7.462;2023-07-29T02:36:41;18.10;99.90
79065;DHT22;68469;51.502;7.462;2023-07-29T02:39:07;18.10;99.90
79065;DHT22;68469;51.502;7.462;2023-07-29T02:41:33;18.10;99.90
79065;DHT22;68469;51.502;7.462;2023-07-29T02:43:58;18.10;99.90
79065;DHT22;68469;51.502;7.462;2023-07-29T02:46:24;18.10;99.90
79065;DHT22;68469;51.502;7.462;2023-07-29T02:48:50;18.10;99.90
79065;DHT22;68469;51.502;7.462;2023-07-29T02:51:16;18.10;99.90
79065;DHT22;68469;51.502;7.462;2023-07-29T02:53:42;18.10;99.90
79065;DHT22;68469;51.502;7.462;2023-07-29T02:56:08;18.10;99.90
79065;DHT22;68469;51.502;7.462;2023-07-29T02:58:35;18.10;99.90
79065;DHT22;68469;51.502;7.462;2023-07-29T03:01:05;18.10;99.90
79065;DHT22;68469;51.502;7.462;2023-07-29T03:03:31;18.10;99.90
79065;DHT22;68469;51.502;7.462;2023-07-29T03:06:05;18.10;99.90
79065;DHT22;68469;51.502;7.462;2023-07-29T03:08:31;18.10;99.90
79065;DHT22;68469;51.502;7.462;2023-07-29T03:10:57;18.10;99.90
79065;DHT22;68469;51.502;7.462;2023-07-29T03:13:23;18.10;99.90
79065;DHT22;68469;51.502;7.462;2023-07-29T03:15:49;18.10;99.90
79065;DHT22;68469;51.502;7.462;2023-07-29T03:18:15;18.10;99.90
79065;DHT22;68469;51.502;7.462;2023-07-29T03:20:41;18.10;99.90
79065;DHT22;68469;51.502;7.462;2023-07-29T03:23:07;18.10;99.90
79065;DHT22;68469;51.502;7.462;2023-07-29T03:25:32;18.10;99.90
79065;DHT22;68469;51.502;7.462;2023-07-29T03:27:58;18.10;99.90
79065;DHT22;68469;51.502;7.462;2023-07-29T03:30:24;18.10;99.90
79065;DHT22;68469;51.502;7.462;2023-07-29T03:32:50;18.10;99.90
79065;DHT22;68469;51.502;7.462;2023-07-29T03:35:16;18.10;99.90
79065;DHT22;68469;51.502;7.462;2023-07-29T03:37:41;18.10;99.90
79065;DHT22;68469;51.502;7.462;2023-07-29T03:40:07;18.20;99.90
79065;DHT22;68469;51.502;7.462;2023-07-29T03:42:34;18.20;99.90
79065;DHT22;68469;51.502;7.462;2023-07-29T03:45:00;18.20;99.90
79065;DHT22;68469;51.502;7.462;2023-07-29T03:47:26;18.20;99.90
79065;DHT22;68469;51.502;7.462;2023-07-29T03:49:51;18.20;99.90
79065;DHT22;68469;51.502;7.462;2023-07-29T03:52:17;18.20;99.90
79065;DHT22;68469;51.502;7.462;2023-07-29T03:54:43;18.20;99.90
79065;DHT22;68469;51.502;7.462;2023-07-29T03:57:08;18.20;99.90
79065;DHT22;68469;51.502;7.462;2023-07-29T03:59:34;18.20;99.90
79065;DHT22;68469;51.502;7.462;2023-07-29T04:01:59;18.20;99.90
79065;DHT22;68469;51.502;7.462;2023-07-29T04:04:25;18.20;99.90
79065;DHT22;68469;51.502;7.462;2023-07-29T04:06:50;18.10;99.90
79065;DHT22;68469;51.502;7.462;2023-07-29T04:09:16;18.20;99.90
79065;DHT22;68469;51.502;7.462;2023-07-29T04:11:42;18.20;99.90
79065;DHT22;68469;51.502;7.462;2023-07-29T04:14:07;18.20;99.90
79065;DHT22;68469;51.502;7.462;2023-07-29T04:16:33;18.20;99.90
79065;DHT22;68469;51.502;7.462;2023-07-29T04:18:58;18.20;99.90
79065;DHT22;68469;51.502;7.462;2023-07-29T04:21:24;18.20;99.90
79065;DHT22;68469;51.502;7.462;2023-07-29T04:23:50;18.30;99.90
79065;DHT22;68469;51.502;7.462;2023-07-29T04:26:15;18.30;99.90
79065;DHT22;68469;51.502;7.462;2023-07-29T04:28:42;18.30;99.90
79065;DHT22;68469;51.502;7.462;2023-07-29T04:31:08;18.30;99.90
79065;DHT22;68469;51.502;7.462;2023-07-29T04:33:33;18.30;99.90
79065;DHT22;68469;51.502;7.462;2023-07-29T04:35:59;18.30;99.90
79065;DHT22;68469;51.502;7.462;2023-07-29T04:38:31;18.30;99.90
79065;DHT22;68469;51.502;7.462;2023-07-29T04:40:58;18.30;99.90
79065;DHT22;68469;51.502;7.462;2023-07-29T04:43:30;18.40;99.90
79065;DHT22;68469;51.502;7.462;2023-07-29T04:45:56;18.40;99.90
79065;DHT22;68469;51.502;7.462;2023-07-29T04:48:22;18.40;99.90
79065;DHT22;68469;51.502;7.462;2023-07-29T04:50:48;18.40;99.90
79065;DHT22;68469;51.502;7.462;2023-07-29T04:53:14;18.40;99.90
79065;DHT22;68469;51.502;7.462;2023-07-29T04:55:42;18.40;99.90
79065;DHT22;68469;51.502;7.462;2023-07-29T04:58:08;18.40;99.90
79065;DHT22;68469;51.502;7.462;2023-07-29T05:00:34;18.40;99.90
79065;DHT22;68469;51.502;7.462;2023-07-29T05:02:59;18.50;99.90
79065;DHT22;68469;51.502;7.462;2023-07-29T05:05:26;18.40;99.90
79065;DHT22;68469;51.502;7.462;2023-07-29T05:07:52;18.50;99.90
79065;DHT22;68469;51.502;7.462;2023-07-29T05:10:18;18.50;99.90
79065;DHT22;68469;51.502;7.462;2023-07-29T05:12:44;18.50;99.90
79065;DHT22;68469;51.502;7.462;2023-07-29T05:15:10;18.50;99.90
79065;DHT22;68469;51.502;7.462;2023-07-29T05:17:36;18.50;99.90
79065;DHT22;68469;51.502;7.462;2023-07-29T05:20:01;18.50;99.90
79065;DHT22;68469;51.502;7.462;2023-07-29T05:22:27;18.50;99.90
79065;DHT22;68469;51.502;7.462;2023-07-29T05:24:53;18.50;99.90
79065;DHT22;68469;51.502;7.462;2023-07-29T05:27:19;18.50;99.90
79065;DHT22;68469;51.502;7.462;2023-07-29T05:29:44;18.50;99.90
79065;DHT22;68469;51.502;7.462;2023-07-29T05:32:10;18.50;99.90
79065;DHT22;68469;51.502;7.462;2023-07-29T05:34:37;18.50;99.90
79065;DHT22;68469;51.502;7.462;2023-07-29T05:37:02;18.50;99.90
79065;DHT22;68469;51.502;7.462;2023-07-29T05:39:29;18.60;99.90
79065;DHT22;68469;51.502;7.462;2023-07-29T05:41:55;18.60;99.90
79065;DHT22;68469;51.502;7.462;2023-07-29T05:44:20;18.70;99.90
79065;DHT22;68469;51.502;7.462;2023-07-29T05:46:46;18.70;99.90
79065;DHT22;68469;51.502;7.462;2023-07-29T05:49:12;18.80;99.90
79065;DHT22;68469;51.502;7.462;2023-07-29T05:51:37;18.90;99.90
79065;DHT22;68469;51.502;7.462;2023-07-29T05:54:04;18.90;99.90
79065;DHT22;68469;51.502;7.462;2023-07-29T05:56:29;18.90;99.90
79065;DHT22;68469;51.502;7.462;2023-07-29T05:58:56;18.90;99.90
79065;DHT22;68469;51.502;7.462;2023-07-29T06:01:22;18.90;99.90
79065;DHT22;68469;51.502;7.462;2023-07-29T06:03:50;18.90;99.90
79065;DHT22;68469;51.502;7.462;2023-07-29T06:06:16;18.90;99.90
79065;DHT22;68469;51.502;7.462;2023-07-29T06:08:42;18.90;99.90
79065;DHT22;68469;51.502;7.462;2023-07-29T06:11:07;18.90;99.90
79065;DHT22;68469;51.502;7.462;2023-07-29T06:13:33;18.90;99.90
79065;DHT22;68469;51.502;7.462;2023-07-29T06:15:58;18.90;99.90
79065;DHT22;68469;51.502;7.462;2023-07-29T06:18:24;18.90;99.90
79065;DHT22;68469;51.502;7.462;2023-07-29T06:20:50;18.90;99.90
79065;DHT22;68469;51.502;7.462;2023-07-29T06:23:16;18.90;99.90
79065;DHT22;68469;51.502;7.462;2023-07-29T06:25:42;18.90;99.90
79065;DHT22;68469;51.502;7.462;2023-07-29T06:28:08;18.80;99.90
79065;DHT22;68469;51.502;7.462;2023-07-29T06:30:34;18.80;99.90
79065;DHT22;68469;51.502;7.462;2023-07-29T06:32:59;18.80;99.90
79065;DHT22;68469;51.502;7.462;2023-07-29T06:35:25;18.80;99.90
79065;DHT22;68469;51.502;7.462;2023-07-29T06:37:51;18.80;99.90
79065;DHT22;68469;51.502;7.462;2023-07-29T06:40:16;18.80;99.90
79065;DHT22;68469;51.502;7.462;2023-07-29T06:42:42;18.90;99.90
79065;DHT22;68469;51.502;7.462;2023-07-29T06:45:08;18.90;99.90
79065;DHT22;68469;51.502;7.462;2023-07-29T06:47:34;18.90;99.90
79065;DHT22;68469;51.502;7.462;2023-07-29T06:49:59;18.80;99.90
79065;DHT22;68469;51.502;7.462;2023-07-29T06:52:25;18.80;99.90
79065;DHT22;68469;51.502;7.462;2023-07-29T06:54:51;18.80;99.90
79065;DHT22;68469;51.502;7.462;2023-07-29T06:57:16;18.80;99.90
79065;DHT22;68469;51.502;7.462;2023-07-29T06:59:42;18.80;99.90
79065;DHT22;68469;51.502;7.462;2023-07-29T07:02:08;18.70;99.90
79065;DHT22;68469;51.502;7.462;2023-07-29T07:04:33;18.70;99.90
79065;DHT22;68469;51.502;7.462;2023-07-29T07:06:59;18.80;99.90
79065;DHT22;68469;51.502;7.462;2023-07-29T07:09:25;18.80;99.90
79065;DHT22;68469;51.502;7.462;2023-07-29T07:11:50;18.80;99.90
79065;DHT22;68469;51.502;7.462;2023-07-29T07:14:16;18.70;99.90
79065;DHT22;68469;51.502;7.462;2023-07-29T07:16:41;18.70;99.90
79065;DHT22;68469;51.502;7.462;2023-07-29T07:19:07;18.70;99.90
79065;DHT22;68469;51.502;7.462;2023-07-29T07:21:33;18.70;99.90
79065;DHT22;68469;51.502;7.462;2023-07-29T07:23:58;18.70;99.90
79065;DHT22;68469;51.502;7.462;2023-07-29T07:26:25;18.80;99.90
79065;DHT22;68469;51.502;7.462;2023-07-29T07:28:51;18.80;99.90
79065;DHT22;68469;51.502;7.462;2023-07-29T07:31:17;18.90;99.90
79065;DHT22;68469;51.502;7.462;2023-07-29T07:33:42;18.90;99.90
79065;DHT22;68469;51.502;7.462;2023-07-29T07:36:08;18.90;99.90
79065;DHT22;68469;51.502;7.462;2023-07-29T07:38:33;19.10;99.90
79065;DHT22;68469;51.502;7.462;2023-07-29T07:40:59;19.30;99.90
79065;DHT22;68469;51.502;7.462;2023-07-29T07:43:25;19.40;99.90
79065;DHT22;68469;51.502;7.462;2023-07-29T07:45:51;19.50;99.90
79065;DHT22;68469;51.502;7.462;2023-07-29T07:48:22;19.60;99.90
79065;DHT22;68469;51.502;7.462;2023-07-29T07:50:48;19.80;99.90
79065;DHT22;68469;51.502;7.462;2023-07-29T07:53:13;20.20;99.90
79065;DHT22;68469;51.502;7.462;2023-07-29T07:55:39;20.50;99.90
79065;DHT22;68469;51.502;7.462;2023-07-29T07:58:05;20.80;99.90
79065;DHT22;68469;51.502;7.462;2023-07-29T08:00:30;21.00;99.90
79065;DHT22;68469;51.502;7.462;2023-07-29T08:02:59;21.20;99.90
79065;DHT22;68469;51.502;7.462;2023-07-29T08:05:25;21.50;99.90
79065;DHT22;68469;51.502;7.462;2023-07-29T08:07:50;21.50;99.90
79065;DHT22;68469;51.502;7.462;2023-07-29T08:10:16;21.40;99.90
79065;DHT22;68469;51.502;7.462;2023-07-29T08:12:42;21.60;99.90
79065;DHT22;68469;51.502;7.462;2023-07-29T08:15:07;21.70;99.90
79065;DHT22;68469;51.502;7.462;2023-07-29T08:17:33;21.80;99.90
79065;DHT22;68469;51.502;7.462;2023-07-29T08:19:58;21.80;99.90
79065;DHT22;68469;51.502;7.462;2023-07-29T08:22:24;21.70;99.90
79065;DHT22;68469;51.502;7.462;2023-07-29T08:24:50;21.60;99.90
79065;DHT22;68469;51.502;7.462;2023-07-29T08:27:15;21.40;99.90
79065;DHT22;68469;51.502;7.462;2023-07-29T08:29:41;21.40;99.90
79065;DHT22;68469;51.502;7.462;2023-07-29T08:32:07;21.80;99.90
79065;DHT22;68469;51.502;7.462;2023-07-29T08:34:33;22.00;99.90
79065;DHT22;68469;51.502;7.462;2023-07-29T08:36:58;22.20;99.90
79065;DHT22;68469;51.502;7.462;2023-07-29T08:39:25;22.30;99.90
79065;DHT22;68469;51.502;7.462;2023-07-29T08:41:54;22.50;99.90
79065;DHT22;68469;51.502;7.462;2023-07-29T08:44:23;22.60;99.90
79065;DHT22;68469;51.502;7.462;2023-07-29T08:46:49;22.80;97.40
79065;DHT22;68469;51.502;7.462;2023-07-29T08:49:18;22.80;97.70
79065;DHT22;68469;51.502;7.462;2023-07-29T08:51:48;22.70;96.60
79065;DHT22;68469;51.502;7.462;2023-07-29T08:54:14;22.90;94.80
79065;DHT22;68469;51.502;7.462;2023-07-29T08:56:43;22.90;94.50
79065;DHT22;68469;51.502;7.462;2023-07-29T08:59:10;22.90;91.20
79065;DHT22;68469;51.502;7.462;2023-07-29T09:01:39;22.80;89.50
79065;DHT22;68469;51.502;7.462;2023-07-29T09:04:05;23.00;90.80
79065;DHT22;68469;51.502;7.462;2023-07-29T09:06:31;23.10;84.80
79065;DHT22;68469;51.502;7.462;2023-07-29T09:08:58;23.10;87.10
79065;DHT22;68469;51.502;7.462;2023-07-29T09:11:24;23.30;89.10
79065;DHT22;68469;51.502;7.462;2023-07-29T09:13:50;23.50;90.30
79065;DHT22;68469;51.502;7.462;2023-07-29T09:16:16;23.80;86.60
79065;DHT22;68469;51.502;7.462;2023-07-29T09:18:42;24.10;81.70
79065;DHT22;68469;51.502;7.462;2023-07-29T09:21:07;24.20;76.00
79065;DHT22;68469;51.502;7.462;2023-07-29T09:23:41;24.30;78.80
79065;DHT22;68469;51.502;7.462;2023-07-29T09:26:10;24.50;79.00
79065;DHT22;68469;51.502;7.462;2023-07-29T09:28:38;24.70;77.60
79065;DHT22;68469;51.502;7.462;2023-07-29T09:31:04;24.70;77.40
79065;DHT22;68469;51.502;7.462;2023-07-29T09:33:33;24.70;77.70
79065;DHT22;68469;51.502;7.462;2023-07-29T09:36:08;24.60;74.40
79065;DHT22;68469;51.502;7.462;2023-07-29T09:38:34;24.50;73.70
79065;DHT22;68469;51.502;7.462;2023-07-29T09:41:01;24.60;74.20
79065;DHT22;68469;51.502;7.462;2023-07-29T09:43:33;24.90;74.90
79065;DHT22;68469;51.502;7.462;2023-07-29T09:46:03;25.10;73.60
79065;DHT22;68469;51.502;7.462;2023-07-29T09:48:37;25.10;72.00
79065;DHT22;68469;51.502;7.462;2023-07-29T09:51:09;25.20;72.70
79065;DHT22;68469;51.502;7.462;2023-07-29T09:53:46;25.30;70.80
79065;DHT22;68469;51.502;7.462;2023-07-29T09:56:12;25.30;71.10
79065;DHT22;68469;51.502;7.462;2023-07-29T09:58:38;25.30;72.20
79065;DHT22;68469;51.502;7.462;2023-07-29T10:01:08;25.50;71.80
79065;DHT22;68469;51.502;7.462;2023-07-29T10:03:35;25.80;67.40
79065;DHT22;68469;51.502;7.462;2023-07-29T10:06:02;26.10;67.80
79065;DHT22;68469;51.502;7.462;2023-07-29T10:08:30;26.20;65.30
79065;DHT22;68469;51.502;7.462;2023-07-29T10:11:01;26.50;67.00
79065;DHT22;68469;51.502;7.462;2023-07-29T10:13:28;26.50;67.40
79065;DHT22;68469;51.502;7.462;2023-07-29T10:15:57;26.20;67.00
79065;DHT22;68469;51.502;7.462;2023-07-29T10:18:23;25.80;67.40
79065;DHT22;68469;51.502;7.462;2023-07-29T10:20:52;25.60;68.90
79065;DHT22;68469;51.502;7.462;2023-07-29T10:23:21;25.30;70.00
79065;DHT22;68469;51.502;7.462;2023-07-29T10:25:52;25.20;72.30
79065;DHT22;68469;51.502;7.462;2023-07-29T10:28:20;25.00;70.30
79065;DHT22;68469;51.502;7.462;2023-07-29T10:30:48;24.90;68.70
79065;DHT22;68469;51.502;7.462;2023-07-29T10:33:15;24.70;71.50
79065;DHT22;68469;51.502;7.462;2023-07-29T10:35:42;24.90;70.70
79065;DHT22;68469;51.502;7.462;2023-07-29T10:38:08;25.00;67.80
79065;DHT22;68469;51.502;7.462;2023-07-29T10:40:55;25.60;68.60
79065;DHT22;68469;51.502;7.462;2023-07-29T10:43:27;26.10;67.30
79065;DHT22;68469;51.502;7.462;2023-07-29T10:45:55;27.00;66.00
79065;DHT22;68469;51.502;7.462;2023-07-29T10:51:30;27.70;63.00
79065;DHT22;68469;51.502;7.462;2023-07-29T10:56:36;28.20;60.70
79065;DHT22;68469;51.502;7.462;2023-07-29T11:01:56;30.60;57.30
79065;DHT22;68469;51.502;7.462;2023-07-29T11:04:26;32.30;56.50
79065;DHT22;68469;51.502;7.462;2023-07-29T11:07:18;33.70;47.60
79065;DHT22;68469;51.502;7.462;2023-07-29T11:17:47;35.70;43.60
79065;DHT22;68469;51.502;7.462;2023-07-29T11:20:14;34.40;45.20
79065;DHT22;68469;51.502;7.462;2023-07-29T11:22:40;34.10;44.30
79065;DHT22;68469;51.502;7.462;2023-07-29T11:25:08;33.80;45.10
79065;DHT22;68469;51.502;7.462;2023-07-29T11:27:35;34.40;45.50
79065;DHT22;68469;51.502;7.462;2023-07-29T11:30:02;35.40;44.90
79065;DHT22;68469;51.502;7.462;2023-07-29T11:32:30;36.50;42.20
79065;DHT22;68469;51.502;7.462;2023-07-29T11:34:56;37.70;39.30
79065;DHT22;68469;51.502;7.462;2023-07-29T11:37:22;38.80;38.00
79065;DHT22;68469;51.502;7.462;2023-07-29T11:39:48;39.70;37.70
79065;DHT22;68469;51.502;7.462;2023-07-29T11:42:14;40.50;35.50
79065;DHT22;68469;51.502;7.462;2023-07-29T11:44:40;40.70;35.90
79065;DHT22;68469;51.502;7.462;2023-07-29T11:47:07;40.10;34.00
79065;DHT22;68469;51.502;7.462;2023-07-29T11:49:33;38.40;35.20
79065;DHT22;68469;51.502;7.462;2023-07-29T11:52:00;36.70;37.10
79065;DHT22;68469;51.502;7.462;2023-07-29T11:54:26;35.00;40.00
79065;DHT22;68469;51.502;7.462;2023-07-29T11:56:52;33.40;43.20
79065;DHT22;68469;51.502;7.462;2023-07-29T11:59:18;32.30;46.70
79065;DHT22;68469;51.502;7.462;2023-07-29T12:01:43;31.20;48.60
79065;DHT22;68469;51.502;7.462;2023-07-29T12:04:10;30.30;47.50
79065;DHT22;68469;51.502;7.462;2023-07-29T12:06:37;29.80;48.90
79065;DHT22;68469;51.502;7.462;2023-07-29T12:09:03;29.30;51.60
79065;DHT22;68469;51.502;7.462;2023-07-29T12:11:29;28.80;52.30
79065;DHT22;68469;51.502;7.462;2023-07-29T12:13:55;28.40;53.50
79065;DHT22;68469;51.502;7.462;2023-07-29T12:16:21;28.80;53.90
79065;DHT22;68469;51.502;7.462;2023-07-29T12:18:46;30.40;53.30
79065;DHT22;68469;51.502;7.462;2023-07-29T12:21:14;31.80;48.50
79065;DHT22;68469;51.502;7.462;2023-07-29T12:23:40;32.00;47.00
79065;DHT22;68469;51.502;7.462;2023-07-29T12:26:05;31.70;47.60
79065;DHT22;68469;51.502;7.462;2023-07-29T12:28:31;32.70;46.40
79065;DHT22;68469;51.502;7.462;2023-07-29T12:30:57;32.90;45.90
79065;DHT22;68469;51.502;7.462;2023-07-29T12:33:36;33.60;43.30
79065;DHT22;68469;51.502;7.462;2023-07-29T12:36:03;34.50;43.00
79065;DHT22;68469;51.502;7.462;2023-07-29T12:38:29;34.10;42.80
79065;DHT22;68469;51.502;7.462;2023-07-29T12:40:55;33.00;43.20
79065;DHT22;68469;51.502;7.462;2023-07-29T12:43:21;31.80;45.40
79065;DHT22;68469;51.502;7.462;2023-07-29T12:45:49;30.90;48.40
79065;DHT22;68469;51.502;7.462;2023-07-29T12:48:15;30.20;50.40
79065;DHT22;68469;51.502;7.462;2023-07-29T12:50:41;29.60;51.30
79065;DHT22;68469;51.502;7.462;2023-07-29T12:53:07;29.00;52.20
79065;DHT22;68469;51.502;7.462;2023-07-29T12:55:35;28.70;53.90
79065;DHT22;68469;51.502;7.462;2023-07-29T12:58:01;28.30;55.00
79065;DHT22;68469;51.502;7.462;2023-07-29T13:00:27;28.10;53.90
79065;DHT22;68469;51.502;7.462;2023-07-29T13:02:53;27.80;55.00
79065;DHT22;68469;51.502;7.462;2023-07-29T13:05:19;27.60;54.90
79065;DHT22;68469;51.502;7.462;2023-07-29T13:07:45;27.50;55.10
79065;DHT22;68469;51.502;7.462;2023-07-29T13:10:11;27.30;56.70
79065;DHT22;68469;51.502;7.462;2023-07-29T13:12:37;27.10;57.90
79065;DHT22;68469;51.502;7.462;2023-07-29T13:15:02;26.90;57.20
79065;DHT22;68469;51.502;7.462;2023-07-29T13:17:28;26.60;56.20
79065;DHT22;68469;51.502;7.462;2023-07-29T13:19:54;26.40;58.60
79065;DHT22;68469;51.502;7.462;2023-07-29T13:22:20;26.10;61.30
79065;DHT22;68469;51.502;7.462;2023-07-29T13:24:46;26.00;60.90
79065;DHT22;68469;51.502;7.462;2023-07-29T13:27:11;25.80;60.20
79065;DHT22;68469;51.502;7.462;2023-07-29T13:29:37;25.60;61.70
79065;DHT22;68469;51.502;7.462;2023-07-29T13:32:04;25.50;61.80
79065;DHT22;68469;51.502;7.462;2023-07-29T13:34:30;25.40;60.30
79065;DHT22;68469;51.502;7.462;2023-07-29T13:36:55;25.40;63.40
79065;DHT22;68469;51.502;7.462;2023-07-29T13:39:21;25.30;63.40
79065;DHT22;68469;51.502;7.462;2023-07-29T13:41:46;25.40;61.90
79065;DHT22;68469;51.502;7.462;2023-07-29T13:44:12;25.40;63.10
79065;DHT22;68469;51.502;7.462;2023-07-29T13:46:38;25.50;62.60
79065;DHT22;68469;51.502;7.462;2023-07-29T13:49:03;25.60;63.20
79065;DHT22;68469;51.502;7.462;2023-07-29T13:51:29;25.60;62.50
79065;DHT22;68469;51.502;7.462;2023-07-29T13:53:54;25.60;63.90
79065;DHT22;68469;51.502;7.462;2023-07-29T13:56:21;25.50;61.80
79065;DHT22;68469;51.502;7.462;2023-07-29T13:58:47;25.40;62.00
79065;DHT22;68469;51.502;7.462;2023-07-29T14:01:12;25.40;64.10
79065;DHT22;68469;51.502;7.462;2023-07-29T14:03:38;25.20;64.30
79065;DHT22;68469;51.502;7.462;2023-07-29T14:06:04;25.10;64.00
79065;DHT22;68469;51.502;7.462;2023-07-29T14:08:29;24.90;64.20
79065;DHT22;68469;51.502;7.462;2023-07-29T14:10:55;24.70;64.10
79065;DHT22;68469;51.502;7.462;2023-07-29T14:13:21;24.50;65.00
79065;DHT22;68469;51.502;7.462;2023-07-29T14:15:47;24.30;65.30
79065;DHT22;68469;51.502;7.462;2023-07-29T14:18:12;24.10;66.10
79065;DHT22;68469;51.502;7.462;2023-07-29T14:20:38;24.00;66.50
79065;DHT22;68469;51.502;7.462;2023-07-29T14:23:04;23.90;67.70
79065;DHT22;68469;51.502;7.462;2023-07-29T14:25:30;23.70;69.90
79065;DHT22;68469;51.502;7.462;2023-07-29T14:27:56;23.60;71.90
79065;DHT22;68469;51.502;7.462;2023-07-29T14:30:21;23.40;76.70
79065;DHT22;68469;51.502;7.462;2023-07-29T14:32:48;23.20;77.10
79065;DHT22;68469;51.502;7.462;2023-07-29T14:35:13;22.90;80.00
79065;DHT22;68469;51.502;7.462;2023-07-29T14:37:39;22.60;86.00
79065;DHT22;68469;51.502;7.462;2023-07-29T14:40:05;22.30;93.80
79065;DHT22;68469;51.502;7.462;2023-07-29T14:42:31;22.10;95.00
79065;DHT22;68469;51.502;7.462;2023-07-29T14:44:56;21.70;99.90
79065;DHT22;68469;51.502;7.462;2023-07-29T14:47:22;21.40;99.90
79065;DHT22;68469;51.502;7.462;2023-07-29T14:49:48;21.10;99.90
79065;DHT22;68469;51.502;7.462;2023-07-29T14:52:14;20.90;99.90
79065;DHT22;68469;51.502;7.462;2023-07-29T14:54:39;20.80;99.90
79065;DHT22;68469;51.502;7.462;2023-07-29T14:57:06;20.70;99.90
79065;DHT22;68469;51.502;7.462;2023-07-29T14:59:32;20.60;99.90
79065;DHT22;68469;51.502;7.462;2023-07-29T15:01:58;20.50;99.90
79065;DHT22;68469;51.502;7.462;2023-07-29T15:04:24;20.40;99.90
79065;DHT22;68469;51.502;7.462;2023-07-29T15:06:50;20.30;99.90
79065;DHT22;68469;51.502;7.462;2023-07-29T15:09:15;20.30;99.90
79065;DHT22;68469;51.502;7.462;2023-07-29T15:11:41;20.30;99.90
79065;DHT22;68469;51.502;7.462;2023-07-29T15:14:07;20.40;99.90
79065;DHT22;68469;51.502;7.462;2023-07-29T15:16:33;20.50;99.90
79065;DHT22;68469;51.502;7.462;2023-07-29T15:19:03;20.60;99.90
79065;DHT22;68469;51.502;7.462;2023-07-29T15:21:29;20.60;99.90
79065;DHT22;68469;51.502;7.462;2023-07-29T15:23:55;20.60;99.90
79065;DHT22;68469;51.502;7.462;2023-07-29T15:26:21;20.60;99.90
79065;DHT22;68469;51.502;7.462;2023-07-29T15:28:46;20.70;99.90
79065;DHT22;68469;51.502;7.462;2023-07-29T15:31:13;20.60;99.90
79065;DHT22;68469;51.502;7.462;2023-07-29T15:33:38;20.50;99.90
79065;DHT22;68469;51.502;7.462;2023-07-29T15:36:04;20.50;99.90
79065;DHT22;68469;51.502;7.462;2023-07-29T15:38:30;20.40;99.90
79065;DHT22;68469;51.502;7.462;2023-07-29T15:40:55;20.40;99.90
79065;DHT22;68469;51.502;7.462;2023-07-29T15:43:22;20.30;99.90
79065;DHT22;68469;51.502;7.462;2023-07-29T15:45:48;20.30;99.90
79065;DHT22;68469;51.502;7.462;2023-07-29T15:48:14;20.20;99.90
79065;DHT22;68469;51.502;7.462;2023-07-29T15:50:40;20.10;99.90
79065;DHT22;68469;51.502;7.462;2023-07-29T15:53:05;20.10;99.90